Terminal Aerodrome Forecast
Issued by NWS

Home | Current Version | Previous Version | Text Only | Print | Product List | Glossary On
Versions: 1 2 3 4 5 6 7 8 9 10 11 12
000
FTAK31 PAJN 291100
TAFASI
TAF
PASI 291130Z 2912/3012 09008KT P6SM FEW200
      TEMPO 2912/2914 09015G25KT
     FM300900 12008KT P6SM OVC150=

USA.gov is the U.S. government's official web portal to all federal, state and local government web resources and services.